createdAt,value
2022-08-30T00:02:01.662Z,0.63
2022-08-30T00:04:28.136Z,0.50
2022-08-30T00:06:54.704Z,0.50
2022-08-30T00:09:21.216Z,0.65
2022-08-30T00:11:50.086Z,0.60
2022-08-30T00:14:16.581Z,0.60
2022-08-30T00:16:43.053Z,0.47
2022-08-30T00:19:09.559Z,0.80
2022-08-30T00:21:36.097Z,0.65
2022-08-30T00:24:02.821Z,0.60
2022-08-30T00:26:29.590Z,0.50
2022-08-30T00:28:56.054Z,0.60
2022-08-30T00:31:22.578Z,0.60
2022-08-30T00:33:49.088Z,0.60
2022-08-30T00:36:16.055Z,0.70
2022-08-30T00:38:42.511Z,0.70
2022-08-30T00:41:09.363Z,0.57
2022-08-30T00:43:36.799Z,0.65
2022-08-30T00:46:04.758Z,0.60
2022-08-30T00:48:33.380Z,0.55
2022-08-30T00:51:03.493Z,0.63
2022-08-30T00:53:38.970Z,0.60
2022-08-30T00:56:06.324Z,0.60
2022-08-30T00:58:36.999Z,0.70
2022-08-30T01:01:05.995Z,0.50
2022-08-30T01:03:34.224Z,0.47
2022-08-30T01:06:01.284Z,0.60
2022-08-30T01:08:27.821Z,0.40
2022-08-30T01:10:55.776Z,0.70
2022-08-30T01:13:25.234Z,0.50
2022-08-30T01:15:52.886Z,0.60
2022-08-30T01:18:22.260Z,0.55
2022-08-30T01:21:15.261Z,0.65
2022-08-30T01:23:44.639Z,0.60
2022-08-30T01:26:12.499Z,0.70
2022-08-30T01:28:40.316Z,0.70
2022-08-30T01:31:08.482Z,0.50
2022-08-30T01:33:37.617Z,0.47
2022-08-30T01:36:07.293Z,0.43
2022-08-30T01:38:38.598Z,0.60
2022-08-30T01:41:16.053Z,0.57
2022-08-30T01:43:43.517Z,0.50
2022-08-30T01:46:11.905Z,0.40
2022-08-30T01:48:40.075Z,0.55
2022-08-30T01:51:11.140Z,0.50
2022-08-30T01:53:38.712Z,0.50
2022-08-30T01:56:06.177Z,0.52
2022-08-30T01:58:32.703Z,0.50
2022-08-30T02:00:59.289Z,0.57
2022-08-30T02:03:30.411Z,0.50
2022-08-30T02:05:56.963Z,0.50
2022-08-30T02:08:23.423Z,0.40
2022-08-30T02:10:49.914Z,0.65
2022-08-30T02:13:16.447Z,0.52
2022-08-30T02:15:43.023Z,0.43
2022-08-30T02:18:10.754Z,0.50
2022-08-30T02:20:38.958Z,0.50
2022-08-30T02:23:05.450Z,0.43
2022-08-30T02:25:31.992Z,0.57
2022-08-30T02:27:58.487Z,0.40
2022-08-30T02:30:25.076Z,0.50
2022-08-30T02:32:51.625Z,0.40
2022-08-30T02:35:18.169Z,0.60
2022-08-30T02:37:44.655Z,0.50
2022-08-30T02:40:11.521Z,0.50
2022-08-30T02:42:38.421Z,0.50
2022-08-30T02:45:05.561Z,0.40
2022-08-30T02:47:32.426Z,0.50
2022-08-30T02:49:58.929Z,0.50
2022-08-30T02:52:27.765Z,0.40
2022-08-30T02:54:55.290Z,0.60
2022-08-30T02:57:22.020Z,0.50
2022-08-30T02:59:49.242Z,0.50
2022-08-30T03:02:16.110Z,0.50
2022-08-30T03:04:44.729Z,0.60
2022-08-30T03:07:12.728Z,0.60
2022-08-30T03:09:39.771Z,0.63
2022-08-30T03:12:07.737Z,0.50
2022-08-30T03:14:36.287Z,0.60
2022-08-30T03:17:15.388Z,0.50
2022-08-30T03:19:42.669Z,0.60
2022-08-30T03:22:09.154Z,0.50
2022-08-30T03:24:35.624Z,0.50
2022-08-30T03:27:02.143Z,0.50
2022-08-30T03:29:29.757Z,0.55
2022-08-30T03:31:57.273Z,0.57
2022-08-30T03:34:25.357Z,0.47
2022-08-30T03:36:54.329Z,0.60
2022-08-30T03:39:22.609Z,0.40
2022-08-30T03:41:49.410Z,0.50
2022-08-30T03:44:16.015Z,0.40
2022-08-30T03:46:42.593Z,0.40
2022-08-30T03:49:09.189Z,0.52
2022-08-30T03:51:35.751Z,0.55
2022-08-30T03:54:02.895Z,0.50
2022-08-30T03:56:29.589Z,0.50
2022-08-30T03:58:56.108Z,0.60
2022-08-30T04:01:22.675Z,0.57
2022-08-30T04:03:49.256Z,0.60
2022-08-30T04:06:21.666Z,0.60
2022-08-30T04:08:48.269Z,0.50
2022-08-30T04:11:16.355Z,0.60
2022-08-30T04:13:47.015Z,0.55
2022-08-30T04:16:17.253Z,0.60
2022-08-30T04:18:43.805Z,0.40
2022-08-30T04:21:14.228Z,0.43
2022-08-30T04:23:40.875Z,0.60
2022-08-30T04:26:21.001Z,0.77
2022-08-30T04:28:53.139Z,0.50
2022-08-30T04:31:51.652Z,0.60
2022-08-30T04:34:27.464Z,0.60
2022-08-30T04:36:54.000Z,0.43
2022-08-30T04:39:20.805Z,0.52
2022-08-30T04:41:47.522Z,0.60
2022-08-30T04:44:19.456Z,0.60
2022-08-30T04:46:46.476Z,0.70
2022-08-30T04:49:12.940Z,0.52
2022-08-30T04:51:39.423Z,0.60
2022-08-30T04:54:06.450Z,0.45
2022-08-30T04:56:33.596Z,0.68
2022-08-30T04:59:00.318Z,0.50
2022-08-30T05:01:30.164Z,0.65
2022-08-30T05:03:57.781Z,0.60
2022-08-30T05:06:27.524Z,0.60
2022-08-30T05:08:54.499Z,0.60
2022-08-30T05:11:21.355Z,0.80
2022-08-30T05:13:47.940Z,0.50
2022-08-30T05:16:20.417Z,0.60
2022-08-30T05:18:49.097Z,0.73
2022-08-30T05:21:21.520Z,0.43
2022-08-30T05:23:48.353Z,0.50
2022-08-30T05:26:21.596Z,0.40
2022-08-30T05:28:49.755Z,0.57
2022-08-30T05:31:18.088Z,0.50
2022-08-30T05:33:45.648Z,0.50
2022-08-30T05:36:14.250Z,0.60
2022-08-30T05:38:41.350Z,0.60
2022-08-30T05:41:11.035Z,0.50
2022-08-30T05:43:40.344Z,0.50
2022-08-30T05:46:10.596Z,0.60
2022-08-30T05:48:38.613Z,0.60
2022-08-30T05:51:06.242Z,0.47
2022-08-30T05:53:33.815Z,0.70
2022-08-30T05:56:02.680Z,0.40
2022-08-30T05:58:29.741Z,0.60
2022-08-30T06:00:56.324Z,0.60
2022-08-30T06:03:22.878Z,0.60
2022-08-30T06:05:49.406Z,0.60
2022-08-30T06:08:15.959Z,0.70
2022-08-30T06:10:42.566Z,0.60
2022-08-30T06:13:09.582Z,0.65
2022-08-30T06:15:37.550Z,0.60
2022-08-30T06:18:04.208Z,0.70
2022-08-30T06:20:30.711Z,0.52
2022-08-30T06:22:57.184Z,0.50
2022-08-30T06:25:23.799Z,0.60
2022-08-30T06:27:54.556Z,0.70
2022-08-30T06:30:23.024Z,0.68
2022-08-30T06:32:49.505Z,0.65
2022-08-30T06:35:16.087Z,0.75
2022-08-30T06:37:43.238Z,0.70
2022-08-30T06:40:11.192Z,0.50
2022-08-30T06:42:37.758Z,0.60
2022-08-30T06:45:11.092Z,0.65
2022-08-30T06:47:38.443Z,0.60
2022-08-30T06:50:05.427Z,0.68
2022-08-30T06:52:32.173Z,0.70
2022-08-30T06:54:59.105Z,0.80
2022-08-30T06:57:26.501Z,0.70
2022-08-30T06:59:57.492Z,0.50
2022-08-30T07:02:26.296Z,0.82
2022-08-30T07:55:56.187Z,0.65
2022-08-30T07:58:22.750Z,0.70
2022-08-30T08:00:49.299Z,0.60
2022-08-30T08:03:16.001Z,0.65
2022-08-30T08:05:44.859Z,0.60
2022-08-30T08:08:12.763Z,0.85
2022-08-30T08:10:40.838Z,0.63
2022-08-30T08:13:07.558Z,0.98
2022-08-30T08:15:34.131Z,0.47
2022-08-30T08:18:01.220Z,0.73
2022-08-30T08:20:28.289Z,0.60
2022-08-30T08:22:55.236Z,0.77
2022-08-30T08:25:22.071Z,0.60
2022-08-30T08:27:50.841Z,0.50
2022-08-30T08:30:19.133Z,0.70
2022-08-30T08:32:46.097Z,0.60
2022-08-30T08:35:13.024Z,0.82
2022-08-30T08:37:40.063Z,0.60
2022-08-30T08:40:08.782Z,0.65
2022-08-30T08:43:00.583Z,0.50
2022-08-30T08:45:45.447Z,0.50
2022-08-30T08:48:21.863Z,0.60
2022-08-30T08:51:07.050Z,0.60
2022-08-30T08:53:46.322Z,0.50
2022-08-30T08:56:17.513Z,0.40
2022-08-30T08:58:54.548Z,0.75
2022-08-30T09:01:29.888Z,0.50
2022-08-30T09:03:58.600Z,0.70
2022-08-30T09:06:45.271Z,0.80
2022-08-30T09:09:12.997Z,0.60
2022-08-30T09:11:41.151Z,0.60
2022-08-30T09:14:16.155Z,0.63
2022-08-30T09:16:52.656Z,0.60
2022-08-30T09:19:34.455Z,0.50
2022-08-30T09:22:06.231Z,0.52
2022-08-30T09:24:42.761Z,0.43
2022-08-30T09:27:24.052Z,0.70
2022-08-30T09:30:00.292Z,0.60
2022-08-30T09:32:28.514Z,0.60
2022-08-30T09:34:55.524Z,0.40
2022-08-30T09:37:47.904Z,0.55
2022-08-30T09:40:22.293Z,0.70
2022-08-30T09:43:08.471Z,0.60
2022-08-30T09:45:41.126Z,0.50
2022-08-30T09:48:27.769Z,0.30
2022-08-30T09:51:13.161Z,0.70
2022-08-30T09:54:17.487Z,0.47
2022-08-30T09:56:56.697Z,0.50
2022-08-30T09:59:31.708Z,0.50
2022-08-30T10:02:06.910Z,0.70
2022-08-30T10:05:06.692Z,0.80
2022-08-30T10:08:04.219Z,0.70
2022-08-30T10:10:45.693Z,0.50
2022-08-30T10:16:31.770Z,0.50
2022-08-30T10:19:20.219Z,0.70
2022-08-30T10:21:54.984Z,0.57
2022-08-30T10:24:33.467Z,0.60
2022-08-30T10:27:10.155Z,0.50
2022-08-30T10:29:49.360Z,0.50
2022-08-30T10:32:26.001Z,0.60
2022-08-30T10:35:08.078Z,0.50
2022-08-30T10:37:40.940Z,0.45
2022-08-30T10:40:34.203Z,0.50
2022-08-30T10:43:13.630Z,0.70
2022-08-30T10:45:45.137Z,0.43
2022-08-30T10:48:17.440Z,0.60
2022-08-30T10:50:52.120Z,0.55
2022-08-30T10:53:46.588Z,0.52
2022-08-30T10:56:18.639Z,0.60
2022-08-30T10:58:45.267Z,0.57
2022-08-30T11:01:33.658Z,0.77
2022-08-30T11:04:22.327Z,0.45
2022-08-30T11:07:01.068Z,0.40
2022-08-30T11:09:39.654Z,0.40
2022-08-30T11:12:28.007Z,0.52
2022-08-30T11:14:55.892Z,0.60
2022-08-30T11:17:22.461Z,0.40
2022-08-30T11:19:51.262Z,0.32
2022-08-30T11:22:28.756Z,0.38
2022-08-30T11:25:10.253Z,0.60
2022-08-30T11:27:51.790Z,0.55
2022-08-30T11:30:41.857Z,0.45
2022-08-30T11:33:15.745Z,0.60
2022-08-30T11:35:48.100Z,0.50
2022-08-30T11:38:27.349Z,0.40
2022-08-30T11:40:58.269Z,0.40
2022-08-30T11:43:33.749Z,0.55
2022-08-30T11:46:21.117Z,0.60
2022-08-30T11:49:01.474Z,0.50
2022-08-30T11:51:44.968Z,0.60
2022-08-30T11:54:28.931Z,0.38
2022-08-30T11:57:40.202Z,0.47
2022-08-30T12:00:08.313Z,0.40
2022-08-30T12:02:59.080Z,0.52
2022-08-30T12:05:40.940Z,0.50
2022-08-30T12:08:21.130Z,0.47
2022-08-30T12:10:57.010Z,0.52
2022-08-30T12:13:54.737Z,0.40
2022-08-30T12:17:06.050Z,0.65
2022-08-30T12:19:34.071Z,0.50
2022-08-30T12:22:06.018Z,0.40
2022-08-30T12:24:40.222Z,0.85
2022-08-30T12:27:25.257Z,0.43
2022-08-30T12:29:54.370Z,0.60
2022-08-30T12:32:24.687Z,0.50
2022-08-30T12:35:07.132Z,0.70
2022-08-30T12:37:42.271Z,0.60
2022-08-30T12:40:22.844Z,0.50
2022-08-30T12:43:04.796Z,0.85
2022-08-30T12:45:38.186Z,17.25
2022-08-30T12:48:11.117Z,7.40
2022-08-30T12:50:59.215Z,4.68
2022-08-30T12:53:32.504Z,23.67
2022-08-30T12:56:10.877Z,9.63
2022-08-30T12:58:47.774Z,7.65
2022-08-30T13:01:33.346Z,7.13
2022-08-30T13:04:18.670Z,7.30
2022-08-30T13:06:58.538Z,6.85
2022-08-30T13:10:02.739Z,6.50
2022-08-30T13:12:29.262Z,6.65
2022-08-30T13:15:20.324Z,5.90
2022-08-30T13:17:47.003Z,5.75
2022-08-30T13:20:16.338Z,5.32
2022-08-30T13:23:01.340Z,5.45
2022-08-30T13:25:30.267Z,4.95
2022-08-30T13:28:01.202Z,4.75
2022-08-30T13:30:28.152Z,4.68
2022-08-30T13:32:54.857Z,4.47
2022-08-30T13:35:21.586Z,4.18
2022-08-30T13:37:50.603Z,4.60
2022-08-30T13:40:19.992Z,4.30
2022-08-30T13:42:47.041Z,4.35
2022-08-30T13:48:02.286Z,4.00
2022-08-30T13:50:30.582Z,3.40
2022-08-30T13:52:57.374Z,3.75
2022-08-30T13:55:23.940Z,3.22
2022-08-30T13:57:54.378Z,3.85
2022-08-30T14:00:22.389Z,3.00
2022-08-30T14:02:53.981Z,3.05
2022-08-30T14:11:05.303Z,2.78
2022-08-30T14:13:35.230Z,2.75
2022-08-30T14:18:52.876Z,2.45
2022-08-30T14:21:21.406Z,2.60
2022-08-30T14:23:51.291Z,2.42
2022-08-30T14:26:21.585Z,2.30
2022-08-30T14:28:51.603Z,2.33
2022-08-30T14:31:19.729Z,2.13
2022-08-30T14:33:46.819Z,2.30
2022-08-30T14:36:15.570Z,2.00
2022-08-30T14:38:42.828Z,2.13
2022-08-30T14:41:10.804Z,2.20
2022-08-30T14:43:39.629Z,1.90
2022-08-30T14:46:06.304Z,1.80
2022-08-30T14:48:32.891Z,2.17
2022-08-30T14:50:59.473Z,1.60
2022-08-30T14:53:26.415Z,1.90
2022-08-30T14:55:52.989Z,2.00
2022-08-30T14:58:19.500Z,1.70
2022-08-30T15:00:52.868Z,2.17
2022-08-30T15:03:19.598Z,1.40
2022-08-30T15:05:52.878Z,1.83
2022-08-30T15:08:19.941Z,1.67
2022-08-30T15:10:47.451Z,1.80
2022-08-30T15:13:14.197Z,1.90
2022-08-30T15:15:42.721Z,1.67
2022-08-30T15:18:09.823Z,1.67
2022-08-30T15:20:36.810Z,1.50
2022-08-30T15:23:04.016Z,1.60
2022-08-30T15:25:31.801Z,1.30
2022-08-30T15:27:58.427Z,1.50
2022-08-30T15:30:25.150Z,1.20
2022-08-30T15:32:51.806Z,1.52
2022-08-30T15:35:18.443Z,1.40
2022-08-30T15:37:44.923Z,1.50
2022-08-30T15:40:11.601Z,1.42
2022-08-30T15:42:39.631Z,1.10
2022-08-30T15:45:07.042Z,1.25
2022-08-30T15:47:33.577Z,1.50
2022-08-30T15:50:03.295Z,1.50
2022-08-30T15:52:30.788Z,1.27
2022-08-30T15:54:58.145Z,1.23
2022-08-30T15:57:25.474Z,1.42
2022-08-30T15:59:54.406Z,1.30
2022-08-30T16:02:21.935Z,1.20
2022-08-30T16:04:54.258Z,1.48
2022-08-30T16:07:20.805Z,1.00
2022-08-30T16:09:47.604Z,1.15
2022-08-30T16:12:22.330Z,1.10
2022-08-30T16:14:50.496Z,1.27
2022-08-30T16:17:17.356Z,1.10
2022-08-30T16:19:44.919Z,1.65
2022-08-30T16:22:11.624Z,1.10
2022-08-30T16:24:38.369Z,1.10
2022-08-30T16:27:05.683Z,1.30
2022-08-30T16:29:35.492Z,1.15
2022-08-30T16:32:02.143Z,1.10
2022-08-30T16:34:28.818Z,1.13
2022-08-30T16:36:55.395Z,0.90
2022-08-30T16:39:22.376Z,1.08
2022-08-30T16:41:49.342Z,0.80
2022-08-30T16:44:18.382Z,0.90
2022-08-30T16:46:52.728Z,1.00
2022-08-30T16:49:20.831Z,1.30
2022-08-30T16:51:49.827Z,1.10
2022-08-30T16:54:17.569Z,1.20
2022-08-30T16:56:45.752Z,1.00
2022-08-30T16:59:13.180Z,1.00
2022-08-30T17:01:42.448Z,1.40
2022-08-30T17:04:10.952Z,0.88
2022-08-30T17:06:39.980Z,0.90
2022-08-30T17:09:08.746Z,1.10
2022-08-30T17:11:37.605Z,0.82
2022-08-30T17:14:06.796Z,1.00
2022-08-30T17:16:36.054Z,0.93
2022-08-30T17:19:06.529Z,0.80
2022-08-30T17:21:33.407Z,0.77
2022-08-30T17:24:01.666Z,0.93
2022-08-30T17:26:35.075Z,1.00
2022-08-30T17:29:02.836Z,1.00
2022-08-30T17:31:30.775Z,0.90
2022-08-30T17:34:04.044Z,0.98
2022-08-30T17:36:35.572Z,0.85
2022-08-30T17:39:09.383Z,0.93
2022-08-30T17:41:38.108Z,0.90
2022-08-30T17:44:05.151Z,0.75
2022-08-30T17:46:33.009Z,0.75
2022-08-30T17:49:01.055Z,0.77
2022-08-30T17:51:29.371Z,0.55
2022-08-30T17:53:55.883Z,0.80
2022-08-30T17:56:24.093Z,0.63
2022-08-30T17:59:00.854Z,0.80
2022-08-30T18:01:28.178Z,0.80
2022-08-30T18:04:01.596Z,0.77
2022-08-30T18:06:28.834Z,0.77
2022-08-30T18:08:55.279Z,0.80
2022-08-30T18:11:21.781Z,0.77
2022-08-30T18:13:48.291Z,0.82
2022-08-30T18:16:14.816Z,0.88
2022-08-30T18:18:48.899Z,0.90
2022-08-30T18:21:18.349Z,0.70
2022-08-30T18:23:50.050Z,0.80
2022-08-30T18:26:17.430Z,0.85
2022-08-30T18:28:44.926Z,0.80
2022-08-30T18:31:11.628Z,0.80
2022-08-30T18:33:38.251Z,0.60
2022-08-30T18:36:05.815Z,0.80
2022-08-30T18:38:32.653Z,0.75
2022-08-30T18:41:02.252Z,0.70
2022-08-30T18:43:30.800Z,0.73
2022-08-30T18:46:10.336Z,0.77
2022-08-30T18:48:38.600Z,0.70
2022-08-30T18:51:33.045Z,0.70
2022-08-30T18:56:28.693Z,0.50
2022-08-30T19:01:26.012Z,0.70
2022-08-30T19:03:52.635Z,0.85
2022-08-30T19:06:19.118Z,0.70
2022-08-30T19:08:45.936Z,0.68
2022-08-30T19:13:52.936Z,0.80
2022-08-30T19:16:20.324Z,0.73
2022-08-30T19:18:47.098Z,0.70
2022-08-30T19:24:00.223Z,0.70
2022-08-30T19:29:22.506Z,0.73
2022-08-30T19:31:51.647Z,0.70
2022-08-30T19:34:18.992Z,0.57
2022-08-30T19:37:07.047Z,0.82
2022-08-30T19:39:34.698Z,0.80
2022-08-30T19:42:01.295Z,0.80
2022-08-30T19:44:27.829Z,0.65
2022-08-30T19:46:54.509Z,0.80
2022-08-30T19:49:22.785Z,0.80
2022-08-30T19:51:49.285Z,0.70
2022-08-30T19:54:15.804Z,0.70
2022-08-30T19:56:43.973Z,0.70
2022-08-30T19:59:10.587Z,0.63
2022-08-30T20:01:37.301Z,0.68
2022-08-30T20:04:04.096Z,0.57
2022-08-30T20:06:31.585Z,0.60
2022-08-30T20:09:00.362Z,0.77
2022-08-30T20:11:27.974Z,0.60
2022-08-30T20:13:54.511Z,0.68
2022-08-30T20:16:21.070Z,0.90
2022-08-30T20:19:02.546Z,0.68
2022-08-30T20:21:30.574Z,0.70
2022-08-30T20:23:57.202Z,0.70
2022-08-30T20:24:33.233Z,0.80
2022-08-30T20:26:27.462Z,0.73
2022-08-30T20:29:01.793Z,0.80
2022-08-30T20:31:28.905Z,0.80
2022-08-30T20:33:55.669Z,0.90
2022-08-30T20:36:22.159Z,0.60
2022-08-30T20:38:48.646Z,0.70
2022-08-30T20:41:17.213Z,0.80
2022-08-30T20:43:44.063Z,0.60
2022-08-30T20:46:19.402Z,0.60
2022-08-30T20:48:49.444Z,0.70
2022-08-30T20:51:19.561Z,0.60
2022-08-30T20:53:46.824Z,0.90
2022-08-30T20:56:18.817Z,0.75
2022-08-30T20:58:46.004Z,0.63
2022-08-30T21:01:14.616Z,0.70
2022-08-30T21:03:42.404Z,0.70
2022-08-30T21:06:09.100Z,0.50
2022-08-30T21:08:35.639Z,0.60
2022-08-30T21:11:02.196Z,0.70
2022-08-30T21:13:28.866Z,0.60
2022-08-30T21:16:00.331Z,0.63
2022-08-30T21:18:32.662Z,0.70
2022-08-30T21:21:00.864Z,0.60
2022-08-30T21:23:27.340Z,0.60
2022-08-30T21:25:53.794Z,0.60
2022-08-30T21:28:20.648Z,0.85
2022-08-30T21:30:47.209Z,0.60
2022-08-30T21:33:13.817Z,0.68
2022-08-30T21:35:58.913Z,0.43
2022-08-30T21:38:26.409Z,0.70
2022-08-30T21:40:52.953Z,0.55
2022-08-30T21:43:19.432Z,0.60
2022-08-30T21:45:46.437Z,0.70
2022-08-30T21:48:13.816Z,0.60
2022-08-30T21:50:42.245Z,0.82
2022-08-30T21:53:10.078Z,0.50
2022-08-30T21:55:36.708Z,0.60
2022-08-30T21:58:03.520Z,0.50
2022-08-30T22:00:30.579Z,0.63
2022-08-30T22:02:57.522Z,0.50
2022-08-30T22:05:24.078Z,0.55
2022-08-30T22:07:50.599Z,0.43
2022-08-30T22:10:18.075Z,0.50
2022-08-30T22:12:44.604Z,0.50
2022-08-30T22:15:11.539Z,0.60
2022-08-30T22:17:38.003Z,0.68
2022-08-30T22:20:06.114Z,0.57
2022-08-30T22:22:32.960Z,0.40
2022-08-30T22:24:59.440Z,0.70
2022-08-30T22:27:26.040Z,0.50
2022-08-30T22:29:52.543Z,0.60
2022-08-30T22:32:19.112Z,0.65
2022-08-30T22:34:45.987Z,0.60
2022-08-30T22:37:12.510Z,0.60
2022-08-30T22:39:39.009Z,0.57
2022-08-30T22:42:05.820Z,0.60
2022-08-30T22:44:32.417Z,0.60
2022-08-30T22:47:00.712Z,0.40
2022-08-30T22:49:27.553Z,0.60
2022-08-30T22:51:54.018Z,0.77
2022-08-30T22:54:20.500Z,0.55
2022-08-30T22:56:47.007Z,0.50
2022-08-30T22:59:13.522Z,0.60
2022-08-30T23:01:47.076Z,0.70
2022-08-30T23:04:13.838Z,0.63
2022-08-30T23:06:40.984Z,0.60
2022-08-30T23:09:07.818Z,0.50
2022-08-30T23:11:36.112Z,0.73
2022-08-30T23:14:04.816Z,0.57
2022-08-30T23:16:32.642Z,0.57
2022-08-30T23:18:59.596Z,0.50
2022-08-30T23:21:29.213Z,0.80
2022-08-30T23:24:15.569Z,0.50
2022-08-30T23:27:02.961Z,0.60
2022-08-30T23:29:48.318Z,0.43
2022-08-30T23:32:33.256Z,0.68
2022-08-30T23:35:18.255Z,0.60
2022-08-30T23:38:05.547Z,0.60
2022-08-30T23:40:50.471Z,0.50
2022-08-30T23:43:35.323Z,0.40
2022-08-30T23:46:20.746Z,0.75
2022-08-30T23:49:07.546Z,0.40
2022-08-30T23:51:53.979Z,0.50
2022-08-30T23:54:38.893Z,0.47
2022-08-30T23:57:24.496Z,0.50
